createdAt,value
2023-02-19T00:01:48.502Z,78.10
2023-02-19T00:04:18.049Z,78.30
2023-02-19T00:06:47.363Z,78.30
2023-02-19T00:09:16.916Z,78.40
2023-02-19T00:11:46.301Z,78.40
2023-02-19T00:14:18.500Z,78.40
2023-02-19T00:16:47.075Z,78.30
2023-02-19T00:19:17.249Z,78.20
2023-02-19T00:21:45.137Z,78.30
2023-02-19T00:24:14.396Z,78.40
2023-02-19T00:26:43.815Z,78.40
2023-02-19T00:29:14.450Z,78.40
2023-02-19T00:31:44.647Z,78.40
2023-02-19T00:34:13.618Z,78.40
2023-02-19T00:36:42.635Z,78.50
2023-02-19T00:39:15.251Z,78.50
2023-02-19T00:41:43.144Z,78.60
2023-02-19T00:44:12.380Z,78.50
2023-02-19T00:46:42.839Z,78.50
2023-02-19T00:49:17.259Z,78.50
2023-02-19T00:51:45.402Z,78.60
2023-02-19T00:54:13.983Z,78.60
2023-02-19T00:56:42.196Z,78.60
2023-02-19T00:59:10.830Z,78.60
2023-02-19T01:01:39.403Z,78.60
2023-02-19T01:04:07.534Z,78.60
2023-02-19T01:06:37.177Z,78.70
2023-02-19T01:09:07.095Z,78.90
2023-02-19T01:11:35.586Z,78.90
2023-02-19T01:14:04.971Z,78.90
2023-02-19T01:16:33.109Z,78.80
2023-02-19T01:19:01.226Z,78.80
2023-02-19T01:21:30.769Z,78.90
2023-02-19T01:24:00.501Z,78.90
2023-02-19T01:26:31.103Z,78.90
2023-02-19T01:28:59.999Z,79.20
2023-02-19T01:31:28.760Z,78.90
2023-02-19T01:33:59.759Z,78.90
2023-02-19T01:36:28.160Z,78.80
2023-02-19T01:38:56.206Z,78.80
2023-02-19T01:41:27.124Z,78.90
2023-02-19T01:44:01.451Z,79.00
2023-02-19T01:46:31.090Z,79.10
2023-02-19T01:49:03.599Z,79.20
2023-02-19T01:51:33.787Z,79.30
2023-02-19T01:54:04.524Z,79.20
2023-02-19T01:56:36.756Z,79.30
2023-02-19T01:59:05.229Z,79.30
2023-02-19T02:01:33.568Z,79.30
2023-02-19T02:04:02.045Z,79.20
2023-02-19T02:06:32.405Z,79.00
2023-02-19T02:09:18.915Z,79.20
2023-02-19T02:11:51.936Z,79.20
2023-02-19T02:14:23.079Z,79.30
2023-02-19T02:16:58.802Z,79.30
2023-02-19T02:19:40.760Z,79.40
2023-02-19T02:22:16.956Z,79.50
2023-02-19T02:25:34.047Z,79.50
2023-02-19T02:28:18.009Z,79.40
2023-02-19T02:30:50.113Z,79.40
2023-02-19T02:33:30.770Z,79.30
2023-02-19T02:36:04.523Z,79.40
2023-02-19T02:38:36.223Z,79.20
2023-02-19T02:41:05.747Z,79.30
2023-02-19T02:43:34.122Z,79.30
2023-02-19T02:46:03.563Z,79.30
2023-02-19T02:48:38.903Z,79.40
2023-02-19T02:51:15.151Z,79.40
2023-02-19T02:54:10.311Z,79.50
2023-02-19T02:56:41.305Z,79.50
2023-02-19T02:59:11.756Z,79.60
2023-02-19T03:02:02.271Z,79.50
2023-02-19T03:04:36.057Z,79.60
2023-02-19T03:07:09.504Z,79.60
2023-02-19T03:09:43.226Z,79.60
2023-02-19T03:12:32.886Z,79.60
2023-02-19T03:15:25.788Z,79.50
2023-02-19T03:18:18.430Z,79.60
2023-02-19T03:20:51.140Z,79.60
2023-02-19T03:23:21.598Z,79.60
2023-02-19T03:26:04.098Z,79.70
2023-02-19T03:29:00.785Z,79.80
2023-02-19T03:31:32.609Z,79.70
2023-02-19T03:34:07.855Z,79.70
2023-02-19T03:36:41.651Z,79.70
2023-02-19T03:39:12.829Z,79.90
2023-02-19T03:41:49.785Z,79.90
2023-02-19T03:44:24.749Z,79.90
2023-02-19T03:47:03.491Z,79.80
2023-02-19T03:49:43.551Z,79.90
2023-02-19T03:52:17.527Z,79.80
2023-02-19T03:54:53.902Z,80.00
2023-02-19T03:57:26.893Z,80.10
2023-02-19T04:00:00.450Z,80.00
2023-02-19T04:02:33.259Z,80.10
2023-02-19T04:05:11.652Z,80.10
2023-02-19T04:07:46.168Z,80.00
2023-02-19T04:10:18.370Z,80.20
2023-02-19T04:12:53.771Z,80.10
2023-02-19T04:15:27.170Z,80.10
2023-02-19T04:17:59.359Z,80.00
2023-02-19T04:20:31.788Z,80.00
2023-02-19T04:22:59.981Z,79.90
2023-02-19T04:25:30.219Z,80.00
2023-02-19T04:27:58.997Z,80.00
2023-02-19T04:30:27.196Z,80.00
2023-02-19T04:32:55.342Z,79.80
2023-02-19T04:35:23.294Z,79.80
2023-02-19T04:37:52.475Z,80.00
2023-02-19T04:40:20.508Z,80.10
2023-02-19T04:42:48.345Z,80.20
2023-02-19T04:45:16.543Z,80.10
2023-02-19T04:47:44.391Z,80.20
2023-02-19T04:50:12.468Z,80.20
2023-02-19T04:52:40.344Z,80.30
2023-02-19T04:55:10.483Z,80.30
2023-02-19T04:57:38.336Z,80.50
2023-02-19T05:00:08.115Z,80.70
2023-02-19T05:02:36.086Z,80.70
2023-02-19T05:05:04.007Z,80.80
2023-02-19T05:07:32.229Z,80.80
2023-02-19T05:10:00.115Z,80.80
2023-02-19T05:12:31.188Z,80.90
2023-02-19T05:14:59.287Z,81.00
2023-02-19T05:17:27.179Z,80.90
2023-02-19T05:20:14.020Z,80.80
2023-02-19T05:22:41.881Z,80.80
2023-02-19T05:25:09.723Z,80.80
2023-02-19T05:27:38.933Z,80.70
2023-02-19T05:30:07.705Z,80.80
2023-02-19T05:32:36.029Z,80.90
2023-02-19T05:35:03.984Z,80.80
2023-02-19T05:37:31.889Z,80.80
2023-02-19T05:40:00.008Z,80.80
2023-02-19T05:42:27.861Z,80.80
2023-02-19T05:44:57.067Z,81.00
2023-02-19T05:47:24.912Z,80.70
2023-02-19T05:49:52.729Z,80.90
2023-02-19T05:52:20.578Z,81.00
2023-02-19T05:54:48.449Z,81.00
2023-02-19T05:57:16.315Z,80.80
2023-02-19T05:59:44.395Z,80.80
2023-02-19T06:02:13.584Z,80.60
2023-02-19T06:04:41.433Z,80.30
2023-02-19T06:07:09.294Z,80.50
2023-02-19T06:09:37.158Z,80.50
2023-02-19T06:12:05.436Z,80.60
2023-02-19T06:14:33.297Z,80.60
2023-02-19T06:17:01.196Z,80.60
2023-02-19T06:19:30.610Z,80.70
2023-02-19T06:21:58.480Z,80.40
2023-02-19T06:24:28.336Z,80.60
2023-02-19T06:26:56.516Z,80.60
2023-02-19T06:29:24.408Z,80.60
2023-02-19T06:31:52.664Z,80.70
2023-02-19T06:34:20.614Z,80.60
2023-02-19T06:36:51.791Z,80.60
2023-02-19T06:39:19.630Z,80.50
2023-02-19T06:41:47.470Z,80.30
2023-02-19T06:44:15.375Z,80.50
2023-02-19T06:46:43.650Z,80.50
2023-02-19T06:49:11.480Z,80.50
2023-02-19T06:51:39.576Z,80.50
2023-02-19T06:54:08.781Z,80.30
2023-02-19T06:56:39.465Z,80.20
2023-02-19T06:59:08.875Z,80.20
2023-02-19T07:01:38.448Z,80.20
2023-02-19T07:04:07.343Z,80.30
2023-02-19T07:06:36.548Z,80.30
2023-02-19T07:09:05.734Z,80.20
2023-02-19T07:11:36.408Z,80.20
2023-02-19T07:14:07.543Z,80.20
2023-02-19T07:16:35.831Z,80.30
2023-02-19T07:19:04.483Z,80.30
2023-02-19T07:21:37.568Z,80.30
2023-02-19T07:24:06.305Z,80.30
2023-02-19T07:26:35.846Z,80.30
2023-02-19T07:29:03.790Z,80.20
2023-02-19T07:31:31.857Z,80.20
2023-02-19T07:34:00.105Z,80.30
2023-02-19T07:36:27.991Z,80.30
2023-02-19T07:38:56.809Z,80.20
2023-02-19T07:41:24.989Z,80.20
2023-02-19T07:43:55.004Z,80.10
2023-02-19T07:46:23.834Z,80.10
2023-02-19T07:48:51.900Z,80.10
2023-02-19T07:51:20.918Z,80.00
2023-02-19T07:53:51.109Z,80.00
2023-02-19T07:56:20.217Z,79.80
2023-02-19T07:58:48.329Z,79.90
2023-02-19T08:01:19.409Z,80.00
2023-02-19T08:03:48.184Z,80.00
2023-02-19T08:06:17.330Z,80.10
2023-02-19T08:08:45.265Z,80.00
2023-02-19T08:11:30.761Z,80.10
2023-02-19T08:13:58.848Z,80.10
2023-02-19T08:16:41.095Z,80.00
2023-02-19T08:19:10.789Z,80.10
2023-02-19T08:21:38.666Z,79.90
2023-02-19T08:24:07.103Z,79.80
2023-02-19T08:26:35.327Z,79.80
2023-02-19T08:29:03.242Z,79.90
2023-02-19T08:31:32.636Z,80.00
2023-02-19T08:34:00.563Z,80.00
2023-02-19T08:36:28.606Z,80.10
2023-02-19T08:38:56.559Z,80.10
2023-02-19T08:41:24.772Z,79.90
2023-02-19T08:43:52.858Z,80.00
2023-02-19T08:46:21.418Z,80.00
2023-02-19T08:48:50.685Z,80.10
2023-02-19T08:51:18.596Z,80.10
2023-02-19T08:53:47.028Z,80.10
2023-02-19T08:56:17.398Z,80.10
2023-02-19T08:58:45.795Z,80.00
2023-02-19T09:01:16.346Z,79.80
2023-02-19T09:03:44.405Z,79.90
2023-02-19T09:06:17.187Z,79.90
2023-02-19T09:08:45.543Z,79.80
2023-02-19T09:11:14.214Z,79.80
2023-02-19T09:13:42.823Z,79.60
2023-02-19T09:16:11.011Z,79.60
2023-02-19T09:18:38.863Z,79.70
2023-02-19T09:21:07.415Z,79.60
2023-02-19T09:23:37.587Z,79.50
2023-02-19T09:26:09.997Z,79.40
2023-02-19T09:28:41.419Z,79.50
2023-02-19T09:31:12.574Z,79.30
2023-02-19T09:33:43.807Z,79.40
2023-02-19T09:36:12.141Z,79.30
2023-02-19T09:38:41.428Z,79.20
2023-02-19T09:41:19.157Z,79.20
2023-02-19T09:43:47.339Z,79.20
2023-02-19T09:46:25.971Z,79.00
2023-02-19T09:48:55.827Z,78.80
2023-02-19T09:51:25.946Z,78.80
2023-02-19T09:53:56.974Z,78.70
2023-02-19T09:56:26.969Z,78.70
2023-02-19T09:58:58.282Z,78.70
2023-02-19T10:01:31.019Z,78.60
2023-02-19T10:03:59.299Z,78.60
2023-02-19T10:06:29.841Z,78.60
2023-02-19T10:09:17.458Z,78.60
2023-02-19T10:11:46.031Z,78.60
2023-02-19T10:14:18.128Z,78.50
2023-02-19T10:16:49.214Z,78.60
2023-02-19T10:19:17.729Z,78.60
2023-02-19T10:21:45.908Z,78.60
2023-02-19T10:24:21.652Z,78.50
2023-02-19T10:26:51.484Z,78.50
2023-02-19T10:29:19.994Z,78.30
2023-02-19T10:31:47.958Z,78.20
2023-02-19T10:34:23.681Z,78.30
2023-02-19T10:36:53.473Z,78.30
2023-02-19T10:39:42.162Z,78.20
2023-02-19T10:42:16.918Z,78.00
2023-02-19T10:44:47.479Z,78.40
2023-02-19T10:47:21.233Z,78.30
2023-02-19T10:49:50.652Z,78.00
2023-02-19T10:52:23.004Z,77.80
2023-02-19T10:54:54.197Z,77.60
2023-02-19T10:57:32.907Z,77.60
2023-02-19T11:00:03.971Z,77.50
2023-02-19T11:02:32.707Z,77.30
2023-02-19T11:05:16.236Z,77.30
2023-02-19T11:07:47.565Z,77.30
2023-02-19T11:10:28.156Z,77.30
2023-02-19T11:12:59.240Z,77.20
2023-02-19T11:15:29.848Z,77.30
2023-02-19T11:18:05.344Z,77.20
2023-02-19T11:20:33.800Z,77.10
2023-02-19T11:23:07.554Z,77.00
2023-02-19T11:25:36.890Z,77.10
2023-02-19T11:28:08.244Z,77.10
2023-02-19T11:30:39.878Z,77.10
2023-02-19T11:33:28.651Z,77.20
2023-02-19T11:36:18.998Z,77.30
2023-02-19T11:38:46.860Z,77.30
2023-02-19T11:41:23.997Z,77.30
2023-02-19T11:44:06.063Z,77.50
2023-02-19T11:46:43.732Z,77.70
2023-02-19T11:49:30.024Z,77.90
2023-02-19T11:52:16.499Z,77.90
2023-02-19T11:54:54.531Z,78.20
2023-02-19T11:57:42.281Z,78.30
2023-02-19T12:00:21.708Z,78.50
2023-02-19T12:03:17.392Z,78.50
2023-02-19T12:05:58.543Z,78.60
2023-02-19T12:08:51.861Z,78.70
2023-02-19T12:11:36.493Z,78.90
2023-02-19T12:14:34.754Z,79.20
2023-02-19T12:17:12.950Z,79.50
2023-02-19T12:19:52.330Z,79.50
2023-02-19T12:22:31.144Z,79.50
2023-02-19T12:25:17.345Z,79.70
2023-02-19T12:27:56.600Z,80.00
2023-02-19T12:30:38.626Z,79.90
2023-02-19T12:33:40.194Z,80.00
2023-02-19T12:36:17.050Z,80.10
2023-02-19T12:38:48.697Z,80.10
2023-02-19T12:41:37.384Z,80.20
2023-02-19T12:44:10.401Z,80.30
2023-02-19T12:46:42.447Z,80.40
2023-02-19T12:49:14.980Z,80.40
2023-02-19T12:51:46.482Z,80.40
2023-02-19T12:54:18.994Z,80.50
2023-02-19T12:56:52.539Z,80.70
2023-02-19T12:59:26.180Z,80.50
2023-02-19T13:02:02.179Z,80.60
2023-02-19T13:04:42.061Z,80.70
2023-02-19T13:07:14.831Z,80.80
2023-02-19T13:09:47.982Z,80.80
2023-02-19T13:12:22.638Z,81.00
2023-02-19T13:14:55.392Z,80.80
2023-02-19T13:17:29.300Z,80.80
2023-02-19T13:20:02.589Z,80.80
2023-02-19T13:22:57.572Z,80.70
2023-02-19T13:25:39.079Z,80.70
2023-02-19T13:28:26.796Z,80.90
2023-02-19T13:31:08.110Z,80.90
2023-02-19T13:33:47.003Z,81.10
2023-02-19T13:36:19.585Z,81.20
2023-02-19T13:38:50.034Z,81.10
2023-02-19T13:41:29.471Z,81.10
2023-02-19T13:44:00.556Z,81.20
2023-02-19T13:46:37.742Z,81.10
2023-02-19T13:49:44.508Z,81.00
2023-02-19T13:52:43.998Z,81.00
2023-02-19T13:55:51.981Z,80.90
2023-02-19T13:58:40.936Z,81.00
2023-02-19T14:01:10.169Z,80.70
2023-02-19T14:03:50.750Z,80.80
2023-02-19T14:06:18.794Z,80.90
2023-02-19T14:08:56.024Z,80.90
2023-02-19T14:12:06.741Z,81.10
2023-02-19T14:14:37.119Z,81.00
2023-02-19T14:17:27.808Z,81.00
2023-02-19T14:20:01.006Z,81.00
2023-02-19T14:22:52.006Z,81.00
2023-02-19T14:25:28.942Z,80.80
2023-02-19T14:28:02.983Z,80.70
2023-02-19T14:30:32.672Z,80.30
2023-02-19T14:33:10.777Z,80.50
2023-02-19T14:35:42.236Z,80.50
2023-02-19T14:38:34.611Z,80.50
2023-02-19T14:41:04.377Z,80.40
2023-02-19T14:43:34.772Z,80.20
2023-02-19T14:46:05.405Z,80.10
2023-02-19T14:48:38.762Z,80.10
2023-02-19T14:51:13.659Z,80.10
2023-02-19T14:53:45.223Z,80.10
2023-02-19T14:56:22.977Z,80.10
2023-02-19T14:59:23.864Z,80.00
2023-02-19T15:01:56.418Z,79.90
2023-02-19T15:04:26.978Z,79.90
2023-02-19T15:06:57.087Z,79.90
2023-02-19T15:09:32.771Z,79.80
2023-02-19T15:12:04.001Z,79.70
2023-02-19T15:14:33.326Z,79.70
2023-02-19T15:17:04.267Z,79.70
2023-02-19T15:19:35.002Z,79.70
2023-02-19T15:22:04.953Z,79.80
2023-02-19T15:24:33.153Z,79.70
2023-02-19T15:27:02.509Z,79.70
2023-02-19T15:29:30.370Z,79.70
2023-02-19T15:32:00.243Z,79.60
2023-02-19T15:34:30.044Z,79.60
2023-02-19T15:37:03.616Z,79.70
2023-02-19T15:39:35.413Z,79.70
2023-02-19T15:42:06.591Z,79.70
2023-02-19T15:44:47.606Z,79.80
2023-02-19T15:47:24.792Z,79.80
2023-02-19T15:49:57.539Z,79.80
2023-02-19T15:52:37.495Z,79.70
2023-02-19T15:55:17.563Z,79.70
2023-02-19T15:57:56.402Z,79.70
2023-02-19T16:00:31.363Z,79.70
2023-02-19T16:02:59.910Z,79.60
2023-02-19T16:05:30.124Z,79.60
2023-02-19T16:08:09.231Z,79.60
2023-02-19T16:10:37.506Z,79.40
2023-02-19T16:13:08.469Z,79.50
2023-02-19T16:15:36.944Z,79.50
2023-02-19T16:18:05.676Z,79.50
2023-02-19T16:20:36.997Z,79.40
2023-02-19T16:23:11.425Z,79.50
2023-02-19T16:25:44.108Z,79.50
2023-02-19T16:28:16.149Z,79.40
2023-02-19T16:30:45.037Z,79.50
2023-02-19T16:33:34.765Z,79.60
2023-02-19T16:36:22.124Z,79.70
2023-02-19T16:39:16.619Z,79.70
2023-02-19T16:42:12.749Z,79.70
2023-02-19T16:44:42.673Z,79.70
2023-02-19T16:47:20.380Z,79.60
2023-02-19T16:49:48.244Z,79.50
2023-02-19T16:52:18.009Z,79.50
2023-02-19T16:54:49.041Z,79.50
2023-02-19T16:57:17.126Z,79.50
2023-02-19T16:59:46.333Z,79.30
2023-02-19T17:02:20.368Z,79.30
2023-02-19T17:04:49.651Z,79.20
2023-02-19T17:07:19.209Z,79.30
2023-02-19T17:09:49.365Z,79.30
2023-02-19T17:12:18.199Z,79.20
2023-02-19T17:14:47.569Z,79.20
2023-02-19T17:17:15.436Z,79.10
2023-02-19T17:19:43.441Z,79.10
2023-02-19T17:22:16.752Z,79.10
2023-02-19T17:24:45.862Z,79.20
2023-02-19T17:27:14.283Z,79.30
2023-02-19T17:29:42.131Z,79.30
2023-02-19T17:32:11.442Z,79.40
2023-02-19T17:34:39.306Z,79.50
2023-02-19T17:37:07.516Z,79.50
2023-02-19T17:39:35.419Z,79.60
2023-02-19T17:42:03.805Z,79.70
2023-02-19T17:44:31.656Z,79.70
2023-02-19T17:46:59.578Z,79.80
2023-02-19T17:49:29.038Z,79.80
2023-02-19T17:51:57.013Z,79.80
2023-02-19T17:54:24.852Z,79.90
2023-02-19T17:56:52.734Z,79.90
2023-02-19T17:59:20.586Z,79.80
2023-02-19T18:01:48.500Z,79.80
2023-02-19T18:04:16.485Z,79.80
2023-02-19T18:06:45.859Z,79.80
2023-02-19T18:09:15.209Z,79.80
2023-02-19T18:11:46.255Z,79.90
2023-02-19T18:14:14.190Z,79.90
2023-02-19T18:16:48.763Z,79.90
2023-02-19T18:19:17.971Z,80.00
2023-02-19T18:21:47.183Z,80.10
2023-02-19T18:24:16.137Z,80.10
2023-02-19T18:26:44.067Z,80.10
2023-02-19T18:29:12.040Z,80.10
2023-02-19T18:31:40.177Z,80.10
2023-02-19T18:34:17.609Z,80.10
2023-02-19T18:36:47.230Z,80.30
2023-02-19T18:39:15.696Z,80.30
2023-02-19T18:41:47.870Z,80.40
2023-02-19T18:44:19.166Z,80.40
2023-02-19T18:46:47.333Z,80.40
2023-02-19T18:49:15.251Z,80.40
2023-02-19T18:51:44.010Z,80.50
2023-02-19T18:54:13.299Z,80.50
2023-02-19T18:56:43.184Z,80.50
2023-02-19T18:59:11.712Z,80.50
2023-02-19T19:01:39.735Z,80.50
2023-02-19T19:04:10.190Z,80.60
2023-02-19T19:06:38.055Z,80.60
2023-02-19T19:09:07.053Z,80.60
2023-02-19T19:11:36.493Z,80.60
2023-02-19T19:14:04.535Z,80.60
2023-02-19T19:16:32.432Z,80.70
2023-02-19T19:19:00.704Z,80.70
2023-02-19T19:21:28.603Z,80.70
2023-02-19T19:23:56.466Z,80.70
2023-02-19T19:26:24.320Z,80.80
2023-02-19T19:28:53.649Z,80.70
2023-02-19T19:31:22.117Z,80.80
2023-02-19T19:33:50.488Z,80.80
2023-02-19T19:36:21.404Z,80.90
2023-02-19T19:38:49.808Z,80.90
2023-02-19T19:41:21.096Z,80.80
2023-02-19T19:43:49.245Z,80.80
2023-02-19T19:46:36.632Z,80.90
2023-02-19T19:49:04.728Z,80.80
2023-02-19T19:51:33.824Z,80.90
2023-02-19T19:54:03.108Z,80.90
2023-02-19T19:56:31.267Z,80.90
2023-02-19T19:58:59.264Z,80.90
2023-02-19T20:01:27.321Z,80.90
2023-02-19T20:03:56.525Z,80.90
2023-02-19T20:06:26.748Z,81.00
2023-02-19T20:08:55.171Z,80.90
2023-02-19T20:11:23.477Z,81.00
2023-02-19T20:13:51.518Z,81.00
2023-02-19T20:16:25.448Z,81.10
2023-02-19T20:18:53.568Z,81.20
2023-02-19T20:21:22.903Z,81.30
2023-02-19T20:23:50.774Z,81.30
2023-02-19T20:26:24.379Z,81.30
2023-02-19T20:28:52.345Z,81.40
2023-02-19T20:31:21.293Z,81.40
2023-02-19T20:33:51.091Z,81.40
2023-02-19T20:36:20.020Z,81.30
2023-02-19T20:38:50.555Z,81.30
2023-02-19T20:41:18.463Z,81.40
2023-02-19T20:43:46.382Z,81.40
2023-02-19T20:46:14.685Z,81.60
2023-02-19T20:48:42.771Z,81.70
2023-02-19T20:51:10.649Z,81.60
2023-02-19T20:53:40.672Z,81.60
2023-02-19T20:56:12.831Z,81.70
2023-02-19T20:58:42.526Z,81.80
2023-02-19T21:01:11.707Z,81.80
2023-02-19T21:03:39.691Z,81.80
2023-02-19T21:06:08.112Z,81.80
2023-02-19T21:08:36.442Z,81.80
2023-02-19T21:11:04.477Z,81.80
2023-02-19T21:13:35.078Z,81.70
2023-02-19T21:16:03.570Z,81.70
2023-02-19T21:18:31.721Z,81.80
2023-02-19T21:20:59.748Z,81.80
2023-02-19T21:23:27.583Z,81.90
2023-02-19T21:25:55.784Z,81.90
2023-02-19T21:28:23.642Z,81.80
2023-02-19T21:30:54.115Z,81.90
2023-02-19T21:33:22.204Z,81.90
2023-02-19T21:35:50.157Z,82.00
2023-02-19T21:38:18.021Z,81.90
2023-02-19T21:40:46.137Z,82.00
2023-02-19T21:43:14.106Z,82.10
2023-02-19T21:45:42.682Z,82.00
2023-02-19T21:48:12.194Z,82.00
2023-02-19T21:50:40.242Z,82.00
2023-02-19T21:53:08.138Z,82.10
2023-02-19T21:55:38.535Z,82.00
2023-02-19T21:58:06.661Z,82.10
2023-02-19T22:00:34.563Z,82.10
2023-02-19T22:03:02.524Z,82.00
2023-02-19T22:05:31.883Z,82.00
2023-02-19T22:08:00.106Z,82.00
2023-02-19T22:10:28.248Z,82.00
2023-02-19T22:12:56.073Z,82.00
2023-02-19T22:15:23.971Z,82.00
2023-02-19T22:17:51.886Z,82.10
2023-02-19T22:20:19.894Z,82.20
2023-02-19T22:22:49.835Z,82.10
2023-02-19T22:25:18.032Z,82.10
2023-02-19T22:27:45.970Z,82.10
2023-02-19T22:30:14.219Z,82.10
2023-02-19T22:32:42.311Z,82.20
2023-02-19T22:35:10.345Z,82.20
2023-02-19T22:37:38.570Z,82.20
2023-02-19T22:40:09.122Z,82.10
2023-02-19T22:42:36.991Z,82.10
2023-02-19T22:45:05.264Z,82.20
2023-02-19T22:47:33.081Z,82.20
2023-02-19T22:50:02.039Z,82.10
2023-02-19T22:52:30.024Z,82.20
2023-02-19T22:54:58.028Z,82.20
2023-02-19T22:57:28.207Z,82.20
2023-02-19T22:59:56.389Z,82.10
2023-02-19T23:02:24.300Z,82.20
2023-02-19T23:04:52.174Z,82.20
2023-02-19T23:07:20.010Z,82.20
2023-02-19T23:09:47.863Z,82.10
2023-02-19T23:12:15.840Z,82.10
2023-02-19T23:14:47.083Z,82.10
2023-02-19T23:17:15.280Z,82.20
2023-02-19T23:19:43.151Z,82.20
2023-02-19T23:22:11.426Z,82.10
2023-02-19T23:24:39.576Z,82.10
2023-02-19T23:27:27.368Z,82.10
2023-02-19T23:29:56.627Z,82.20
2023-02-19T23:32:24.487Z,82.10
2023-02-19T23:34:52.469Z,82.10
2023-02-19T23:37:20.408Z,82.10
2023-02-19T23:39:48.292Z,82.10
2023-02-19T23:42:18.106Z,82.10
2023-02-19T23:44:47.767Z,82.10
2023-02-19T23:47:17.022Z,82.10
2023-02-19T23:49:44.893Z,82.10
2023-02-19T23:52:12.769Z,82.20
2023-02-19T23:54:40.671Z,82.20
2023-02-19T23:57:08.599Z,82.20
2023-02-19T23:59:36.533Z,82.10
